SPTN35 YSHW-YSHW
Flight info
| Callsign | SPTN35 |
|---|---|
| Flight time | 0h 48m |
| Altitude | 2000 |
| Route | SLL WOL PIC CDU ONPK |
| Aircraft | H60/M-SDFGRY/LB1 |
Departure
| Time | 2026-04-12 13:01 |
|---|---|
| Airport | Holsworthy (Military) Airport (YSHW) |
Arrival
| Time | 2026-04-12 13:49 |
|---|---|
| Airport | Holsworthy (Military) Airport (YSHW) |
| Time | Latitude | Longitude | Altitude | Speed | Heading |
|---|---|---|---|---|---|
| 2026-04-12 12:40 | -33.99511 | 150.95322 | 250 ft | 0 kts | 122° |
| 2026-04-12 12:41 | -33.99482 | 150.95269 | 249 ft | 0 kts | 122° |
| 2026-04-12 12:46 | -33.99482 | 150.95268 | 249 ft | 0 kts | 121° |
| 2026-04-12 12:51 | -33.99482 | 150.95267 | 249 ft | 0 kts | 120° |
| 2026-04-12 12:53 | -33.99481 | 150.95267 | 249 ft | 0 kts | 120° |
| 2026-04-12 12:58 | -33.99486 | 150.95276 | 249 ft | 2 kts | 121° |
| 2026-04-12 12:58 | -33.99488 | 150.95281 | 249 ft | 0 kts | 123° |
| 2026-04-12 12:59 | -33.99499 | 150.95290 | 250 ft | 4 kts | 184° |
| 2026-04-12 12:59 | -33.99532 | 150.95266 | 252 ft | 6 kts | 214° |
| 2026-04-12 12:59 | -33.99559 | 150.95244 | 253 ft | 2 kts | 214° |
| 2026-04-12 12:59 | -33.99560 | 150.95243 | 254 ft | 0 kts | 214° |
| 2026-04-12 13:00 | -33.99569 | 150.95236 | 254 ft | 4 kts | 218° |
| 2026-04-12 13:00 | -33.99558 | 150.95189 | 256 ft | 10 kts | 308° |
| 2026-04-12 13:00 | -33.99533 | 150.95154 | 297 ft | 1 kts | 309° |
| 2026-04-12 13:00 | -33.99529 | 150.95103 | 343 ft | 11 kts | 314° |
| 2026-04-12 13:01 | -33.99422 | 150.94942 | 437 ft | 38 kts | 301° |
| 2026-04-12 13:01 | -33.99238 | 150.94591 | 642 ft | 59 kts | 295° |
| 2026-04-12 13:01 | -33.99122 | 150.94052 | 726 ft | 75 kts | 274° |
| 2026-04-12 13:01 | -33.99227 | 150.93413 | 770 ft | 86 kts | 245° |
| 2026-04-12 13:02 | -33.99698 | 150.92970 | 841 ft | 90 kts | 209° |
| 2026-04-12 13:02 | -34.00283 | 150.92768 | 1186 ft | 85 kts | 197° |
| 2026-04-12 13:02 | -34.00904 | 150.92823 | 966 ft | 93 kts | 175° |
| 2026-04-12 13:02 | -34.01529 | 150.93092 | 1104 ft | 97 kts | 170° |
| 2026-04-12 13:03 | -34.02119 | 150.93482 | 1307 ft | 97 kts | 168° |
| 2026-04-12 13:03 | -34.02722 | 150.93885 | 1278 ft | 102 kts | 168° |
| 2026-04-12 13:03 | -34.03314 | 150.94273 | 1401 ft | 94 kts | 169° |
| 2026-04-12 13:03 | -34.03887 | 150.94644 | 1590 ft | 96 kts | 168° |
| 2026-04-12 13:04 | -34.04518 | 150.94973 | 1398 ft | 100 kts | 172° |
| 2026-04-12 13:04 | -34.05156 | 150.95232 | 1437 ft | 95 kts | 169° |
| 2026-04-12 13:04 | -34.05763 | 150.95482 | 1650 ft | 88 kts | 168° |
| 2026-04-12 13:04 | -34.06310 | 150.95732 | 2028 ft | 79 kts | 166° |
| 2026-04-12 13:05 | -34.06853 | 150.95987 | 1778 ft | 89 kts | 176° |
| 2026-04-12 13:05 | -34.07447 | 150.96222 | 1743 ft | 90 kts | 178° |
| 2026-04-12 13:05 | -34.08015 | 150.96450 | 1870 ft | 84 kts | 178° |
| 2026-04-12 13:05 | -34.08575 | 150.96639 | 1749 ft | 85 kts | 185° |
| 2026-04-12 13:06 | -34.09159 | 150.96798 | 1617 ft | 88 kts | 181° |
| 2026-04-12 13:06 | -34.09763 | 150.96967 | 1725 ft | 90 kts | 184° |
| 2026-04-12 13:06 | -34.10378 | 150.97132 | 1869 ft | 87 kts | 183° |
| 2026-04-12 13:06 | -34.10975 | 150.97284 | 2300 ft | 85 kts | 182° |
| 2026-04-12 13:07 | -34.11607 | 150.97407 | 1944 ft | 94 kts | 185° |
| 2026-04-12 13:07 | -34.12246 | 150.97505 | 2012 ft | 95 kts | 186° |
| 2026-04-12 13:07 | -34.12897 | 150.97637 | 2201 ft | 94 kts | 183° |
| 2026-04-12 13:07 | -34.13547 | 150.97793 | 1920 ft | 106 kts | 182° |
| 2026-04-12 13:08 | -34.14263 | 150.97929 | 1948 ft | 98 kts | 187° |
| 2026-04-12 13:08 | -34.14955 | 150.98059 | 1802 ft | 101 kts | 185° |
| 2026-04-12 13:08 | -34.15643 | 150.98181 | 1803 ft | 99 kts | 185° |
| 2026-04-12 13:08 | -34.16324 | 150.98295 | 1794 ft | 98 kts | 185° |
| 2026-04-12 13:09 | -34.16992 | 150.98397 | 1794 ft | 94 kts | 185° |
| 2026-04-12 13:09 | -34.17652 | 150.98486 | 1787 ft | 98 kts | 193° |
| 2026-04-12 13:09 | -34.18331 | 150.98502 | 1808 ft | 90 kts | 193° |
| 2026-04-12 13:09 | -34.18942 | 150.98435 | 1829 ft | 92 kts | 198° |
| 2026-04-12 13:10 | -34.19586 | 150.98317 | 1836 ft | 96 kts | 198° |
| 2026-04-12 13:10 | -34.20271 | 150.98169 | 1572 ft | 99 kts | 195° |
| 2026-04-12 13:10 | -34.20887 | 150.98074 | 1816 ft | 83 kts | 195° |
| 2026-04-12 13:10 | -34.21455 | 150.98016 | 1606 ft | 81 kts | 193° |
| 2026-04-12 13:11 | -34.21964 | 150.97977 | 1735 ft | 64 kts | 194° |
| 2026-04-12 13:11 | -34.22391 | 150.97945 | 1857 ft | 59 kts | 198° |
| 2026-04-12 13:11 | -34.22807 | 150.97875 | 1812 ft | 69 kts | 201° |
| 2026-04-12 13:11 | -34.23388 | 150.97745 | 1737 ft | 101 kts | 202° |
| 2026-04-12 13:12 | -34.24149 | 150.97487 | 1563 ft | 122 kts | 204° |
| 2026-04-12 13:12 | -34.24961 | 150.97157 | 1519 ft | 124 kts | 207° |
| 2026-04-12 13:12 | -34.25773 | 150.96807 | 1587 ft | 122 kts | 207° |
| 2026-04-12 13:12 | -34.26548 | 150.96466 | 1547 ft | 120 kts | 207° |
| 2026-04-12 13:13 | -34.27349 | 150.96124 | 1543 ft | 124 kts | 207° |
| 2026-04-12 13:13 | -34.28159 | 150.95784 | 1531 ft | 125 kts | 207° |
| 2026-04-12 13:13 | -34.28979 | 150.95446 | 1535 ft | 125 kts | 207° |
| 2026-04-12 13:13 | -34.29804 | 150.95099 | 1542 ft | 124 kts | 207° |
| 2026-04-12 13:14 | -34.30618 | 150.94752 | 1546 ft | 124 kts | 207° |
| 2026-04-12 13:14 | -34.31443 | 150.94422 | 1548 ft | 127 kts | 206° |
| 2026-04-12 13:14 | -34.32311 | 150.94048 | 1564 ft | 130 kts | 206° |
| 2026-04-12 13:14 | -34.33212 | 150.93672 | 1628 ft | 146 kts | 205° |
| 2026-04-12 13:15 | -34.34208 | 150.93324 | 1469 ft | 150 kts | 200° |
| 2026-04-12 13:15 | -34.35218 | 150.93061 | 1428 ft | 147 kts | 199° |
| 2026-04-12 13:15 | -34.36249 | 150.92785 | 1432 ft | 151 kts | 199° |
| 2026-04-12 13:15 | -34.37298 | 150.92618 | 1340 ft | 158 kts | 187° |
| 2026-04-12 13:16 | -34.38379 | 150.92520 | 1640 ft | 153 kts | 187° |
| 2026-04-12 13:16 | -34.39476 | 150.92404 | 1461 ft | 161 kts | 188° |
| 2026-04-12 13:16 | -34.40580 | 150.92269 | 1598 ft | 158 kts | 189° |
| 2026-04-12 13:16 | -34.41682 | 150.92117 | 1587 ft | 159 kts | 191° |
| 2026-04-12 13:17 | -34.42777 | 150.91960 | 1583 ft | 158 kts | 191° |
| 2026-04-12 13:17 | -34.43872 | 150.91798 | 1580 ft | 159 kts | 191° |
| 2026-04-12 13:17 | -34.44968 | 150.91629 | 1578 ft | 157 kts | 192° |
| 2026-04-12 13:17 | -34.46059 | 150.91472 | 1585 ft | 158 kts | 194° |
| 2026-04-12 13:18 | -34.47065 | 150.91094 | 1674 ft | 146 kts | 222° |
| 2026-04-12 13:18 | -34.47734 | 150.90306 | 1972 ft | 128 kts | 244° |
| 2026-04-12 13:18 | -34.48177 | 150.88384 | 2229 ft | 106 kts | 259° |
| 2026-04-12 13:19 | -34.48218 | 150.87462 | 1972 ft | 111 kts | 263° |
| 2026-04-12 13:19 | -34.48372 | 150.86603 | 2292 ft | 100 kts | 248° |
| 2026-04-12 13:19 | -34.48604 | 150.85805 | 2580 ft | 99 kts | 247° |
| 2026-04-12 13:19 | -34.48746 | 150.84949 | 1940 ft | 110 kts | 246° |
| 2026-04-12 13:20 | -34.49277 | 150.84281 | 1529 ft | 116 kts | 216° |
| 2026-04-12 13:20 | -34.49958 | 150.83820 | 1714 ft | 106 kts | 218° |
| 2026-04-12 13:20 | -34.50480 | 150.83235 | 1603 ft | 103 kts | 219° |
| 2026-04-12 13:20 | -34.50984 | 150.82598 | 1176 ft | 106 kts | 220° |
| 2026-04-12 13:21 | -34.51569 | 150.82016 | 1084 ft | 115 kts | 209° |
| 2026-04-12 13:21 | -34.52318 | 150.81582 | 969 ft | 122 kts | 204° |
| 2026-04-12 13:21 | -34.53131 | 150.81369 | 1246 ft | 124 kts | 172° |
| 2026-04-12 13:21 | -34.53987 | 150.81508 | 1154 ft | 126 kts | 176° |
| 2026-04-12 13:22 | -34.54886 | 150.81288 | 578 ft | 126 kts | 189° |
| 2026-04-12 13:22 | -34.55601 | 150.81194 | 744 ft | 88 kts | 180° |
| 2026-04-12 13:22 | -34.56045 | 150.80955 | 651 ft | 65 kts | 230° |
| 2026-04-12 13:22 | -34.56279 | 150.80477 | 367 ft | 65 kts | 254° |
| 2026-04-12 13:23 | -34.56325 | 150.79982 | 206 ft | 53 kts | 271° |
| 2026-04-12 13:23 | -34.56311 | 150.79605 | 121 ft | 38 kts | 274° |
| 2026-04-12 13:23 | -34.56294 | 150.79262 | 85 ft | 37 kts | 275° |
| 2026-04-12 13:23 | -34.56281 | 150.79065 | 52 ft | 7 kts | 279° |
| 2026-04-12 13:24 | -34.56280 | 150.79039 | 50 ft | 13 kts | 274° |
| 2026-04-12 13:24 | -34.56273 | 150.78927 | 50 ft | 1 kts | 280° |
| 2026-04-12 13:24 | -34.56252 | 150.78900 | 51 ft | 7 kts | 340° |
| 2026-04-12 13:24 | -34.56200 | 150.78897 | 50 ft | 8 kts | 355° |
| 2026-04-12 13:25 | -34.56143 | 150.78890 | 50 ft | 8 kts | 353° |
| 2026-04-12 13:25 | -34.56116 | 150.78922 | 49 ft | 4 kts | 123° |
| 2026-04-12 13:25 | -34.56131 | 150.78946 | 49 ft | 3 kts | 127° |
| 2026-04-12 13:25 | -34.56135 | 150.78952 | 49 ft | 0 kts | 126° |
| 2026-04-12 13:26 | -34.56134 | 150.78952 | 49 ft | 0 kts | 126° |
| 2026-04-12 13:29 | -34.56134 | 150.78951 | 49 ft | 0 kts | 126° |
| 2026-04-12 13:30 | -34.56137 | 150.78953 | 48 ft | 3 kts | 203° |
| 2026-04-12 13:30 | -34.56153 | 150.78895 | 51 ft | 11 kts | 273° |
| 2026-04-12 13:30 | -34.56205 | 150.78837 | 54 ft | 11 kts | 211° |
| 2026-04-12 13:30 | -34.56240 | 150.78818 | 52 ft | 7 kts | 207° |
| 2026-04-12 13:31 | -34.56265 | 150.78762 | 53 ft | 9 kts | 279° |
| 2026-04-12 13:31 | -34.56255 | 150.78681 | 67 ft | 14 kts | 272° |
| 2026-04-12 13:31 | -34.56241 | 150.78460 | 249 ft | 36 kts | 274° |
| 2026-04-12 13:31 | -34.56181 | 150.78113 | 496 ft | 50 kts | 308° |
| 2026-04-12 13:32 | -34.55857 | 150.77840 | 654 ft | 71 kts | 329° |
| 2026-04-12 13:32 | -34.55251 | 150.77585 | 928 ft | 107 kts | 335° |
| 2026-04-12 13:32 | -34.54461 | 150.77309 | 1317 ft | 126 kts | 336° |
| 2026-04-12 13:32 | -34.53532 | 150.77018 | 1591 ft | 150 kts | 337° |
| 2026-04-12 13:33 | -34.52487 | 150.76660 | 1927 ft | 161 kts | 337° |
| 2026-04-12 13:33 | -34.51429 | 150.76259 | 2102 ft | 158 kts | 334° |
| 2026-04-12 13:33 | -34.50379 | 150.75849 | 2230 ft | 158 kts | 334° |
| 2026-04-12 13:33 | -34.49352 | 150.75428 | 2214 ft | 155 kts | 334° |
| 2026-04-12 13:34 | -34.48327 | 150.75016 | 2214 ft | 159 kts | 334° |
| 2026-04-12 13:34 | -34.47278 | 150.74606 | 2209 ft | 158 kts | 334° |
| 2026-04-12 13:34 | -34.46259 | 150.74191 | 2207 ft | 152 kts | 334° |
| 2026-04-12 13:34 | -34.45233 | 150.73779 | 2207 ft | 156 kts | 334° |
| 2026-04-12 13:35 | -34.44209 | 150.73368 | 2203 ft | 153 kts | 334° |
| 2026-04-12 13:35 | -34.43207 | 150.72963 | 2201 ft | 154 kts | 334° |
| 2026-04-12 13:35 | -34.42204 | 150.72562 | 2201 ft | 156 kts | 334° |
| 2026-04-12 13:35 | -34.41164 | 150.72146 | 2198 ft | 158 kts | 334° |
| 2026-04-12 13:36 | -34.40124 | 150.71727 | 2202 ft | 156 kts | 334° |
| 2026-04-12 13:36 | -34.39097 | 150.71332 | 2201 ft | 155 kts | 334° |
| 2026-04-12 13:36 | -34.38066 | 150.70952 | 2198 ft | 155 kts | 334° |
| 2026-04-12 13:36 | -34.37041 | 150.70561 | 2201 ft | 154 kts | 334° |
| 2026-04-12 13:37 | -34.36015 | 150.70158 | 2209 ft | 155 kts | 334° |
| 2026-04-12 13:37 | -34.34980 | 150.69759 | 2205 ft | 157 kts | 334° |
| 2026-04-12 13:37 | -34.33957 | 150.69367 | 2205 ft | 155 kts | 334° |
| 2026-04-12 13:37 | -34.32926 | 150.68982 | 2211 ft | 155 kts | 334° |
| 2026-04-12 13:38 | -34.31887 | 150.68583 | 2206 ft | 156 kts | 334° |
| 2026-04-12 13:38 | -34.30854 | 150.68197 | 2203 ft | 155 kts | 334° |
| 2026-04-12 13:38 | -34.29811 | 150.67809 | 2208 ft | 157 kts | 334° |
| 2026-04-12 13:38 | -34.28762 | 150.67422 | 2206 ft | 158 kts | 334° |
| 2026-04-12 13:39 | -34.27737 | 150.67033 | 2205 ft | 159 kts | 334° |
| 2026-04-12 13:39 | -34.26704 | 150.66618 | 2208 ft | 156 kts | 334° |
| 2026-04-12 13:39 | -34.25658 | 150.66229 | 2212 ft | 154 kts | 334° |
| 2026-04-12 13:39 | -34.24612 | 150.65847 | 2212 ft | 157 kts | 334° |
| 2026-04-12 13:40 | -34.23579 | 150.65459 | 2197 ft | 150 kts | 333° |
| 2026-04-12 13:40 | -34.22627 | 150.65054 | 2053 ft | 137 kts | 329° |
| 2026-04-12 13:40 | -34.21779 | 150.64666 | 2292 ft | 126 kts | 325° |
| 2026-04-12 13:40 | -34.20967 | 150.64212 | 2026 ft | 133 kts | 323° |
| 2026-04-12 13:41 | -34.20098 | 150.63951 | 2139 ft | 131 kts | 8° |
| 2026-04-12 13:41 | -34.19259 | 150.64365 | 2745 ft | 138 kts | 31° |
| 2026-04-12 13:41 | -34.18543 | 150.65230 | 3239 ft | 157 kts | 49° |
| 2026-04-12 13:41 | -34.17884 | 150.66350 | 3516 ft | 169 kts | 59° |
| 2026-04-12 13:42 | -34.17260 | 150.67597 | 3519 ft | 180 kts | 58° |
| 2026-04-12 13:42 | -34.16472 | 150.68823 | 3786 ft | 187 kts | 54° |
| 2026-04-12 13:42 | -34.15600 | 150.69997 | 4255 ft | 187 kts | 49° |
| 2026-04-12 13:42 | -34.14709 | 150.71101 | 4872 ft | 180 kts | 51° |
| 2026-04-12 13:43 | -34.13878 | 150.72213 | 4926 ft | 181 kts | 52° |
| 2026-04-12 13:43 | -34.13032 | 150.73334 | 4930 ft | 179 kts | 52° |
| 2026-04-12 13:43 | -34.12188 | 150.74448 | 5077 ft | 179 kts | 52° |
| 2026-04-12 13:43 | -34.11359 | 150.75546 | 5054 ft | 179 kts | 52° |
| 2026-04-12 13:44 | -34.10521 | 150.76654 | 5045 ft | 180 kts | 52° |
| 2026-04-12 13:44 | -34.09687 | 150.77767 | 5036 ft | 179 kts | 52° |
| 2026-04-12 13:44 | -34.08848 | 150.78876 | 5038 ft | 178 kts | 52° |
| 2026-04-12 13:44 | -34.08016 | 150.79981 | 5036 ft | 177 kts | 52° |
| 2026-04-12 13:45 | -34.07193 | 150.81069 | 5032 ft | 178 kts | 52° |
| 2026-04-12 13:45 | -34.06355 | 150.82177 | 5029 ft | 178 kts | 52° |
| 2026-04-12 13:45 | -34.05529 | 150.83277 | 5026 ft | 176 kts | 52° |
| 2026-04-12 13:45 | -34.04706 | 150.84374 | 5031 ft | 175 kts | 52° |
| 2026-04-12 13:46 | -34.03884 | 150.85462 | 5029 ft | 176 kts | 52° |
| 2026-04-12 13:46 | -34.03078 | 150.86541 | 5022 ft | 175 kts | 52° |
| 2026-04-12 13:46 | -34.02266 | 150.87635 | 4387 ft | 177 kts | 51° |
| 2026-04-12 13:46 | -34.01492 | 150.88810 | 3124 ft | 174 kts | 56° |
| 2026-04-12 13:47 | -34.00804 | 150.89924 | 2655 ft | 160 kts | 55° |
| 2026-04-12 13:47 | -34.00234 | 150.91027 | 1868 ft | 138 kts | 68° |
| 2026-04-12 13:47 | -33.99950 | 150.92022 | 1634 ft | 114 kts | 82° |
| 2026-04-12 13:47 | -33.99826 | 150.92879 | 1361 ft | 91 kts | 99° |
| 2026-04-12 13:48 | -33.99882 | 150.93557 | 1320 ft | 78 kts | 118° |
| 2026-04-12 13:48 | -33.99993 | 150.94147 | 1267 ft | 66 kts | 132° |
| 2026-04-12 13:48 | -34.00098 | 150.94656 | 1218 ft | 61 kts | 132° |
| 2026-04-12 13:48 | -34.00277 | 150.95151 | 849 ft | 74 kts | 134° |
| 2026-04-12 13:49 | -34.00432 | 150.95706 | 711 ft | 50 kts | 50° |
| 2026-04-12 13:49 | -34.00142 | 150.95944 | 540 ft | 60 kts | 357° |
| 2026-04-12 13:49 | -33.99874 | 150.95741 | 402 ft | 42 kts | 308° |
| 2026-04-12 13:49 | -33.99736 | 150.95519 | 299 ft | 18 kts | 302° |
| 2026-04-12 13:50 | -33.99668 | 150.95396 | 262 ft | 20 kts | 302° |
| 2026-04-12 13:50 | -33.99635 | 150.95349 | 247 ft | 9 kts | 348° |
| 2026-04-12 13:50 | -33.99615 | 150.95355 | 248 ft | 5 kts | 35° |
| 2026-04-12 13:50 | -33.99593 | 150.95373 | 246 ft | 1 kts | 33° |
| 2026-04-12 13:51 | -33.99586 | 150.95378 | 246 ft | 3 kts | 31° |
| 2026-04-12 13:51 | -33.99566 | 150.95363 | 246 ft | 6 kts | 297° |
| 2026-04-12 13:51 | -33.99544 | 150.95319 | 247 ft | 7 kts | 308° |
| 2026-04-12 13:51 | -33.99511 | 150.95282 | 247 ft | 8 kts | 29° |
| 2026-04-12 13:52 | -33.99483 | 150.95271 | 245 ft | 2 kts | 303° |
| 2026-04-12 13:52 | -33.99482 | 150.95267 | 245 ft | 0 kts | 304° |
| 2026-04-12 13:54 | -33.99482 | 150.95268 | 245 ft | 0 kts | 304° |